Time;durP1;ratioP1;P1;durP2;ratioP2;P2;SDS_P1;SDS_P2;PMS_P1;PMS_P2;Temp;Humidity;BMP_temperature;BMP_pressure;BME280_temperature;BME280_humidity;BME280_pressure;Samples;Min_cycle;Max_cycle;Signal;HPM_P1;HPM_P2
2022/09/21 00:01:12;;;;;;;7.50;6.70;;;;;;;9.35;100.00;98864.55;1757565;81;21542;-69
2022/09/21 00:03:41;;;;;;;6.95;6.35;;;;;;;9.39;100.00;98867.52;1753371;81;20964;-68
2022/09/21 00:06:13;;;;;;;6.50;5.90;;;;;;;9.44;100.00;98869.67;1790482;79;20961;-68
2022/09/21 00:08:41;;;;;;;8.40;6.62;;;;;;;9.46;100.00;98865.41;1757533;81;21178;-69
2022/09/21 00:11:12;;;;;;;7.85;7.05;;;;;;;9.37;100.00;98869.11;1756127;81;20920;-69
2022/09/21 00:13:40;;;;;;;7.83;6.20;;;;;;;9.34;100.00;98862.95;1788841;80;21233;-68
2022/09/21 00:16:08;;;;;;;10.03;6.90;;;;;;;9.36;100.00;98866.72;1788920;80;20900;-69
2022/09/21 00:18:35;;;;;;;7.47;6.78;;;;;;;9.32;100.00;98860.27;1757699;81;20926;-69
2022/09/21 00:21:13;;;;;;;7.75;6.95;;;;;;;9.36;100.00;98860.81;1755853;81;20988;-69
2022/09/21 00:23:41;;;;;;;7.72;7.03;;;;;;;9.30;100.00;98868.55;1788692;80;21019;-69
2022/09/21 00:26:13;;;;;;;;;;;;;;;9.32;100.00;98861.60;1760211;80;21228;-69
2022/09/21 00:28:39;;;;;;;9.40;8.48;;;;;;;9.31;100.00;98862.14;1757567;81;20165;-69
2022/09/21 00:31:11;;;;;;;14.55;13.08;;;;;;;9.31;100.00;98863.48;1788920;80;21431;-68
2022/09/21 00:33:39;;;;;;;9.23;8.18;;;;;;;9.23;100.00;98855.42;1757716;80;20902;-68
2022/09/21 00:36:09;;;;;;;10.20;9.08;;;;;;;9.27;100.00;98854.89;1758063;81;20876;-69
2022/09/21 00:38:36;;;;;;;11.53;8.65;;;;;;;9.27;100.00;98861.05;1788708;80;21238;-68
2022/09/21 00:41:04;;;;;;;8.68;7.87;;;;;;;9.28;100.00;98860.50;1757491;80;20921;-68
2022/09/21 00:43:37;;;;;;;8.95;8.05;;;;;;;9.24;100.00;98861.58;1789239;80;20975;-68
2022/09/21 00:46:17;;;;;;;7.33;6.62;;;;;;;9.23;100.00;98858.09;1757845;81;22012;-68
2022/09/21 00:48:45;;;;;;;8.28;7.33;;;;;;;9.23;100.00;98856.76;1773906;79;20877;-67
2022/09/21 00:51:12;;;;;;;6.45;5.85;;;;;;;9.25;100.00;98853.00;1745894;80;21157;-69
2022/09/21 00:53:38;;;;;;;6.95;5.45;;;;;;;9.26;100.00;98851.92;1776344;79;20880;-69
2022/09/21 00:56:05;;;;;;;8.08;6.20;;;;;;;9.31;100.00;98850.59;1757569;81;21475;-69
2022/09/21 00:58:38;;;;;;;5.95;5.45;;;;;;;9.36;100.00;98853.33;1777312;79;20936;-69
2022/09/21 01:01:05;;;;;;;9.10;5.55;;;;;;;9.32;100.00;98852.23;1791099;79;20880;-69
2022/09/21 01:03:33;;;;;;;7.25;6.55;;;;;;;9.31;100.00;98854.62;1757820;80;21256;-69
2022/09/21 01:05:59;;;;;;;7.25;5.40;;;;;;;9.22;100.00;98852.45;1788591;80;21445;-70
2022/09/21 01:08:26;;;;;;;6.97;5.50;;;;;;;9.22;100.00;98857.01;1757557;81;20888;-68
2022/09/21 01:11:13;;;;;;;5.85;5.35;;;;;;;9.25;100.00;98857.82;1788784;80;21106;-67
2022/09/21 01:14:19;;;;;;;5.70;5.20;;;;;;;9.18;100.00;98847.34;1717353;80;21089;-68
2022/09/21 01:17:10;;;;;;;7.95;7.15;;;;;;;9.11;100.00;98848.11;1780027;79;21321;-68
2022/09/21 01:19:58;;;;;;;6.33;5.08;;;;;;;9.13;100.00;98850.54;1736402;80;20928;-70
2022/09/21 01:22:42;;;;;;;6.22;5.70;;;;;;;9.07;100.00;98853.73;1753032;81;20897;-69
2022/09/21 01:25:17;;;;;;;6.72;5.70;;;;;;;9.04;100.00;98845.41;1763907;81;21459;-69
2022/09/21 03:34:37;;;;;;;8.33;7.62;;;;;;;;;;1754640;79;20877;-69
2022/09/21 03:37:04;;;;;;;7.35;5.22;;;;;;;;;;1758883;81;20948;-69
2022/09/21 03:39:31;;;;;;;4.72;4.33;;;;;;;;;;1757146;80;20865;-69
2022/09/21 03:41:57;;;;;;;5.53;5.00;;;;;;;;;;1755862;80;21978;-68
2022/09/21 03:44:24;;;;;;;4.33;4.03;;;;;;;;;;1762413;81;21446;-68
2022/09/21 03:46:52;;;;;;;6.05;5.55;;;;;;;;;;1758823;81;21383;-67
2022/09/21 03:49:18;;;;;;;5.90;5.30;;;;;;;;;;1752680;82;20886;-67
2022/09/21 03:51:45;;;;;;;5.83;3.70;;;;;;;;;;1753332;81;20925;-70
2022/09/21 03:54:12;;;;;;;5.12;4.62;;;;;;;;;;1755029;81;21124;-67
2022/09/21 03:56:38;;;;;;;6.45;5.72;;;;;;;;;;1752693;81;20901;-67
2022/09/21 03:59:05;;;;;;;9.93;7.30;;;;;;;;;;1755826;80;20956;-67
2022/09/21 04:01:31;;;;;;;20.50;13.05;;;;;;;;;;1753989;81;20908;-69
2022/09/21 04:03:58;;;;;;;25.88;20.72;;;;;;;;;;1786279;79;20883;-67
2022/09/21 04:06:24;;;;;;;24.12;18.87;;;;;;;;;;1747739;81;21250;-69
2022/09/21 04:08:53;;;;;;;21.30;16.95;;;;;;;;;;1746706;81;20948;-68
2022/09/21 04:11:21;;;;;;;24.05;19.48;;;;;;;;;;1786211;79;20880;-68
2022/09/21 04:13:52;;;;;;;17.15;15.45;;;;;;;;;;1787345;80;20903;-67
2022/09/21 04:16:18;;;;;;;12.85;11.55;;;;;;;;;;1787286;80;20896;-69
2022/09/21 04:18:49;;;;;;;11.83;10.72;;;;;;;;;;1787062;80;21316;-68
2022/09/21 04:21:13;;;;;;;10.98;9.98;;;;;;;;;;1754005;80;20965;-67
2022/09/21 04:23:40;;;;;;;8.78;7.92;;;;;;;;;;1740920;81;20947;-67
2022/09/21 04:26:19;;;;;;;7.62;7.03;;;;;;;;;;1787689;80;20880;-68
2022/09/21 04:28:45;;;;;;;5.83;5.35;;;;;;;;;;1787186;79;20916;-67
2022/09/21 04:31:12;;;;;;;4.85;4.47;;;;;;;;;;1784371;80;21520;-66
2022/09/21 04:33:38;;;;;;;6.25;4.50;;;;;;;;;;1788677;80;21446;-68
2022/09/21 04:36:06;;;;;;;5.12;4.65;;;;;;;;;;1786519;80;20971;-69
2022/09/21 04:38:32;;;;;;;4.30;4.00;;;;;;;;;;1787187;80;21008;-68
2022/09/21 04:40:59;;;;;;;4.45;4.15;;;;;;;;;;1787725;80;20892;-68
2022/09/21 04:43:26;;;;;;;5.95;5.35;;;;;;;;;;1787746;80;21298;-69
2022/09/21 04:45:52;;;;;;;4.85;4.37;;;;;;;;;;1786472;80;20951;-68
2022/09/21 04:48:18;;;;;;;4.87;4.47;;;;;;;;;;1787963;80;21401;-68
2022/09/21 04:50:49;;;;;;;4.75;4.30;;;;;;;;;;1787984;80;20861;-67
2022/09/21 05:32:50;;;;;;;5.20;4.80;;;;;;;-146.14;100.00;53652.95;1834990;77;26731;-64
2022/09/21 05:37:00;;;;;;;9.45;8.53;;;;;;;189.42;0.00;76629.52;1811430;78;20940;-65
2022/09/21 05:40:57;;;;;;;7.60;6.90;;;;;;;-146.14;100.00;121243.64;1730604;82;21312;-67
2022/09/21 05:47:15;;;;;;;6.55;5.95;;;;;;;-146.14;100.00;121243.23;1730789;83;21025;-65
2022/09/21 06:29:33;;;;;;;6.40;5.80;;;;;;;-146.13;100.00;76629.52;1730662;83;20969;-70
2022/09/21 06:32:11;;;;;;;9.73;8.78;;;;;;;35.91;0.00;121243.23;1819476;79;20900;-67
2022/09/21 07:34:55;;;;;;;8.10;7.40;;;;;;;7.78;100.00;98924.63;1819846;79;20896;-62
2022/09/21 07:37:23;;;;;;;11.97;9.70;;;;;;;35.91;0.00;121243.64;1819586;79;21972;-67
2022/09/21 08:00:49;;;;;;;12.73;11.43;;;;;;;7.78;100.00;98924.63;1819607;78;20869;-68
2022/09/21 09:16:06;;;;;;;10.85;9.73;;;;;;;7.78;100.00;121243.23;1819367;79;20916;-65
2022/09/21 09:20:36;;;;;;;37.45;20.92;;;;;;;7.78;100.00;121243.23;1819263;79;20964;-65
2022/09/21 09:24:29;;;;;;;22.62;12.85;;;;;;;7.78;100.00;98924.63;1819503;79;21037;-65
2022/09/21 09:27:19;;;;;;;13.62;8.80;;;;;;;-146.14;100.00;121243.23;1818873;79;21245;-66
2022/09/21 09:30:22;;;;;;;11.83;8.25;;;;;;;7.78;100.00;98924.63;1799667;79;20986;-69
2022/09/21 11:44:47;;;;;;;15.18;10.05;;;;;;;35.91;100.00;121243.77;1819474;79;20849;-74
2022/09/21 11:47:44;;;;;;;4.90;4.35;;;;;;;7.78;100.00;98924.63;1819374;79;21034;-72
2022/09/21 11:50:40;;;;;;;6.70;4.55;;;;;;;-145.22;0.00;121243.64;1819667;79;20980;-70
2022/09/21 11:53:30;;;;;;;5.45;4.97;;;;;;;16.28;100.00;99041.48;1819415;79;21093;-70
2022/09/21 11:56:21;;;;;;;4.35;4.03;;;;;;;83.48;100.00;99045.22;1819460;79;20853;-70
2022/09/21 11:59:29;;;;;;;4.95;4.45;;;;;;;83.48;0.00;121243.64;1819541;79;21398;-70
2022/09/21 12:02:44;;;;;;;4.58;4.17;;;;;;;-146.14;0.00;121329.81;1700218;82;20961;-69
2022/09/21 12:05:51;;;;;;;4.03;3.62;;;;;;;-106.88;100.00;121243.23;1715876;83;20917;-70
2022/09/21 12:08:56;;;;;;;6.28;4.35;;;;;;;-146.14;0.00;121243.23;1721150;83;21562;-72
2022/09/21 12:12:17;;;;;;;5.72;5.25;;;;;;;-146.14;100.00;121243.23;1716445;83;21024;-69
2022/09/21 12:15:32;;;;;;;5.92;5.28;;;;;;;83.48;0.00;121243.64;1722528;83;20977;-70
2022/09/21 12:21:38;;;;;;;4.80;4.30;;;;;;;-146.13;0.00;86975.05;1719419;83;20942;-72
2022/09/21 14:50:35;;;;;;;7.25;4.35;;;;;;;-144.81;100.00;99045.22;1719136;83;20878;-69
2022/09/21 14:54:03;;;;;;;3.95;3.58;;;;;;;83.48;100.00;99045.22;1767267;79;21494;-70
2022/09/21 15:02:30;;;;;;;6.40;5.78;;;;;;;-93.79;100.00;91478.80;1758008;80;21007;-71
2022/09/21 15:11:22;;;;;;;5.08;4.58;;;;;;;16.04;100.00;109734.27;1769959;80;20945;-69
2022/09/21 15:19:25;;;;;;;9.25;6.37;;;;;;;83.48;100.00;99045.22;1767030;80;20916;-70
2022/09/21 15:50:16;;;;;;;3.52;3.22;;;;;;;16.04;100.00;99045.22;1774029;80;21424;-72
2022/09/21 15:53:08;;;;;;;22.07;11.30;;;;;;;83.48;100.00;99045.22;1818376;78;21016;-72
2022/09/21 15:56:01;;;;;;;22.05;10.75;;;;;;;83.48;100.00;99045.22;1819577;79;20943;-74
2022/09/21 15:58:36;;;;;;;13.78;8.25;;;;;;;83.48;100.00;99045.22;1819374;79;20877;-72
2022/09/21 16:01:11;;;;;;;11.03;6.90;;;;;;;83.48;100.00;99045.22;1819895;79;21593;-72
2022/09/21 16:03:39;;;;;;;8.08;6.78;;;;;;;83.48;100.00;99045.22;1819739;79;21439;-71
2022/09/21 16:06:35;;;;;;;5.22;4.72;;;;;;;83.48;100.00;99045.22;1819725;79;21442;-71
2022/09/21 16:09:32;;;;;;;6.72;4.58;;;;;;;83.48;100.00;99045.22;1772875;78;21411;-71
2022/09/21 16:12:30;;;;;;;4.60;3.90;;;;;;;16.04;100.00;99045.22;1818955;78;20924;-71
2022/09/21 16:16:12;;;;;;;9.00;6.62;;;;;;;83.48;100.00;99045.22;1819545;79;20976;-71
2022/09/21 16:19:03;;;;;;;7.22;6.10;;;;;;;16.04;100.00;99045.22;1818942;79;21179;-72
2022/09/21 16:21:55;;;;;;;7.45;5.78;;;;;;;-146.14;100.00;121243.23;1819381;79;20861;-72
2022/09/21 16:24:59;;;;;;;17.92;10.95;;;;;;;;;;1761297;78;20892;-72
2022/09/21 16:28:59;;;;;;;6.65;4.80;;;;;;;16.04;100.00;99045.22;1819341;78;20933;-72
2022/09/21 16:31:36;;;;;;;7.47;6.78;;;;;;;16.04;100.00;99045.22;1810849;79;20909;-72
2022/09/21 16:34:36;;;;;;;11.40;6.73;;;;;;;83.48;100.00;99045.22;1769263;80;21152;-72
2022/09/21 16:37:38;;;;;;;7.17;6.47;;;;;;;16.04;100.00;99045.22;1810791;79;21515;-72
2022/09/21 16:40:09;;;;;;;6.75;6.15;;;;;;;16.04;100.00;99045.22;1819322;79;20956;-72
2022/09/21 16:42:39;;;;;;;21.05;13.20;;;;;;;16.04;100.00;99045.22;1819422;79;20920;-72
2022/09/21 16:46:02;;;;;;;17.57;11.78;;;;;;;83.48;100.00;99045.22;1819486;79;20968;-71
2022/09/21 16:48:31;;;;;;;17.73;11.28;;;;;;;83.48;100.00;99045.22;1819435;79;22129;-72
2022/09/21 16:50:59;;;;;;;8.18;6.60;;;;;;;16.04;100.00;99045.22;1819423;79;20896;-72
2022/09/21 16:53:26;;;;;;;11.97;7.65;;;;;;;16.04;100.00;99045.22;1819652;79;20921;-72
2022/09/21 16:55:55;;;;;;;6.67;6.08;;;;;;;16.04;100.00;99045.22;1819343;79;20901;-72
2022/09/21 16:58:24;;;;;;;6.97;6.30;;;;;;;16.04;100.00;109734.27;1819594;79;20828;-70
2022/09/21 17:00:53;;;;;;;8.48;5.78;;;;;;;16.04;100.00;99045.22;1819481;79;21188;-69
2022/09/21 17:03:21;;;;;;;8.25;5.80;;;;;;;154.07;100.00;99143.97;1819380;79;20857;-71
2022/09/21 17:06:04;;;;;;;8.00;5.90;;;;;;;11.37;100.00;99143.97;1819514;79;20909;-70
2022/09/21 17:08:59;;;;;;;7.75;5.45;;;;;;;11.37;100.00;99143.97;1819299;79;20885;-71
2022/09/21 17:12:00;;;;;;;6.87;6.17;;;;;;;11.37;100.00;99143.97;1819515;79;21463;-71
2022/09/21 17:14:27;;;;;;;;;;;;;;;11.37;100.00;99143.97;1821648;79;21280;-72
2022/09/21 17:16:59;;;;;;;9.43;6.67;;;;;;;154.07;100.00;99143.97;1819540;79;20087;-72
2022/09/21 17:19:26;;;;;;;6.08;5.58;;;;;;;154.07;100.00;99143.97;1819361;79;20936;-71
2022/09/21 17:21:55;;;;;;;6.30;5.25;;;;;;;11.37;100.00;99143.97;1819490;79;20830;-71
2022/09/21 17:24:24;;;;;;;6.03;5.53;;;;;;;11.37;100.00;99143.97;1819479;79;20897;-71
2022/09/21 17:26:54;;;;;;;6.87;6.22;;;;;;;11.37;100.00;99143.97;1820936;79;21319;-70
2022/09/21 17:29:26;;;;;;;8.43;5.37;;;;;;;154.07;100.00;99143.97;1822682;79;21541;-70
2022/09/21 17:31:57;;;;;;;5.80;5.30;;;;;;;11.37;100.00;99143.97;1820229;79;20853;-71
2022/09/21 17:34:27;;;;;;;8.53;5.42;;;;;;;11.37;100.00;99143.97;1819280;79;20987;-71
2022/09/21 17:36:55;;;;;;;6.00;5.35;;;;;;;11.37;100.00;57919.91;1819658;78;20900;-72
2022/09/21 17:39:23;;;;;;;6.83;6.05;;;;;;;11.37;100.00;99143.97;1819625;79;21950;-72
2022/09/21 17:41:54;;;;;;;7.30;5.35;;;;;;;10.44;100.00;99154.25;1819642;79;20833;-71
2022/09/21 17:45:03;;;;;;;9.23;6.17;;;;;;;10.45;100.00;99157.20;1819271;79;20873;-72
2022/09/21 17:47:32;;;;;;;17.52;12.18;;;;;;;10.27;100.00;99154.41;1819348;79;20912;-72
2022/09/21 17:50:08;;;;;;;16.23;14.55;;;;;;;10.27;100.00;99154.41;1819552;79;20873;-71
2022/09/21 17:55:25;;;;;;;12.33;10.95;;;;;;;9.83;100.00;99150.69;1819570;79;24462;-71
2022/09/21 17:58:34;;;;;;;6.60;6.08;;;;;;;173.67;100.00;99158.59;1819688;79;25760;-71
2022/09/21 18:01:07;;;;;;;65.65;42.78;;;;;;;9.63;100.00;99158.59;1819410;79;21462;-71
2022/09/21 18:03:40;;;;;;;115.37;71.00;;;;;;;173.67;100.00;99158.59;1776686;78;20908;-70
2022/09/21 18:06:11;;;;;;;45.20;32.60;;;;;;;173.67;100.00;99158.59;1819436;79;21247;-70
2022/09/21 18:08:40;;;;;;;24.43;18.23;;;;;;;173.67;100.00;99158.59;1819764;78;21557;-70
2022/09/21 18:11:25;;;;;;;15.78;13.45;;;;;;;173.67;100.00;84109.16;1819593;79;21505;-71
2022/09/21 18:14:08;;;;;;;11.03;9.25;;;;;;;173.67;100.00;99158.59;1819667;79;20897;-70
2022/09/21 18:17:09;;;;;;;19.40;16.95;;;;;;;173.67;100.00;84109.16;1819631;79;20936;-71
2022/09/21 18:20:34;;;;;;;13.08;8.50;;;;;;;-146.14;100.00;121243.23;1820222;79;21227;-70
2022/09/21 18:23:30;;;;;;;8.00;7.25;;;;;;;9.63;100.00;126318.77;1819517;79;20932;-70
2022/09/21 18:26:04;;;;;;;12.90;10.35;;;;;;;-146.14;100.00;126318.77;1819808;79;20960;-71
2022/09/21 18:28:55;;;;;;;8.50;7.60;;;;;;;-146.14;100.00;124967.27;1819439;79;20873;-71
2022/09/21 18:32:20;;;;;;;10.35;7.65;;;;;;;173.67;100.00;99158.59;1818356;79;20961;-71
2022/09/21 18:36:05;;;;;;;10.98;7.50;;;;;;;173.67;100.00;99158.59;1819711;79;21233;-71
2022/09/21 18:39:06;;;;;;;9.50;8.20;;;;;;;173.67;100.00;99158.59;1818812;79;20869;-73
2022/09/21 18:41:45;;;;;;;9.20;7.10;;;;;;;-146.14;100.00;-6173.28;1819538;79;20877;-71
2022/09/21 18:44:29;;;;;;;10.00;8.93;;;;;;;9.63;100.00;99158.59;1819398;79;20877;-72
2022/09/21 18:47:17;;;;;;;8.90;7.20;;;;;;;9.63;100.00;99158.59;1819484;79;20955;-71
2022/09/21 18:50:09;;;;;;;11.25;7.90;;;;;;;173.67;100.00;99158.59;1819537;79;21207;-71
2022/09/21 18:52:55;;;;;;;8.13;7.35;;;;;;;-146.14;100.00;121243.23;1818132;79;20924;-71
2022/09/21 18:55:40;;;;;;;8.18;7.37;;;;;;;-144.85;100.00;99158.59;1819576;79;20907;-70
2022/09/21 18:58:23;;;;;;;8.05;7.25;;;;;;;173.67;100.00;99158.59;1819324;79;20967;-72
2022/09/21 19:00:52;;;;;;;13.40;8.85;;;;;;;173.67;100.00;99158.59;1819716;78;20857;-71
2022/09/21 19:03:22;;;;;;;8.80;8.00;;;;;;;173.67;100.00;84109.16;1819671;79;21279;-71
2022/09/21 19:06:37;;;;;;;8.18;7.37;;;;;;;-146.14;100.00;-6173.28;1766016;80;20900;-71
2022/09/21 19:09:47;;;;;;;8.43;7.62;;;;;;;9.63;100.00;99158.59;1819526;78;20940;-71
2022/09/21 19:12:46;;;;;;;8.08;7.35;;;;;;;173.67;100.00;99158.59;1819617;79;20905;-71
2022/09/21 19:18:27;;;;;;;8.35;7.33;;;;;;;-146.14;100.00;121243.23;1782142;78;20952;-71
2022/09/21 19:20:59;;;;;;;8.38;7.58;;;;;;;9.63;100.00;99158.59;1741758;81;21257;-71
2022/09/21 19:24:18;;;;;;;9.08;7.72;;;;;;;8.80;100.00;127345.71;1735543;81;21022;-71
2022/09/21 19:27:37;;;;;;;8.38;7.53;;;;;;;8.80;100.00;99130.83;1740406;81;21622;-71
2022/09/21 19:30:11;;;;;;;10.38;9.43;;;;;;;8.80;100.00;99130.83;1729713;81;21668;-71
2022/09/21 19:32:57;;;;;;;10.50;9.23;;;;;;;-55.81;100.00;99131.02;1732410;81;21037;-71
2022/09/21 19:35:31;;;;;;;9.48;8.55;;;;;;;8.73;100.00;99131.02;1729902;81;21261;-69
2022/09/21 19:38:03;;;;;;;9.05;8.15;;;;;;;8.73;100.00;99131.02;1738588;81;21527;-70
2022/09/21 19:40:33;;;;;;;12.40;8.80;;;;;;;;;;1735829;81;21566;-70
2022/09/21 19:43:20;;;;;;;9.08;8.18;;;;;;;-93.79;100.00;99131.02;1738869;81;21148;-71
2022/09/21 19:48:27;;;;;;;8.73;7.92;;;;;;;-93.79;100.00;92267.30;1737429;81;21029;-71
2022/09/21 19:51:41;;;;;;;10.78;7.62;;;;;;;8.73;100.00;127359.49;1705392;81;21956;-71
2022/09/21 20:28:58;;;;;;;13.38;7.40;;;;;;;-146.14;4.66;127359.49;1819487;79;20955;-70
2022/09/21 20:32:18;;;;;;;64.67;37.45;;;;;;;-146.14;100.00;121243.23;1819381;79;20909;-73
2022/09/21 20:35:27;;;;;;;26.27;18.87;;;;;;;-146.14;0.00;121243.23;1819598;78;21100;-70
2022/09/21 20:39:50;;;;;;;49.58;35.05;;;;;;;-146.13;100.00;76672.56;1819342;79;21052;-71
2022/09/21 21:10:33;;;;;;;16.02;12.82;;;;;;;-55.81;100.00;127267.89;1819315;79;20865;-75
2022/09/21 21:14:44;;;;;;;20.75;18.45;;;;;;;-146.14;100.00;121243.23;1819223;79;20924;-70
2022/09/21 21:17:17;;;;;;;35.20;31.20;;;;;;;-144.83;100.00;76841.65;1819440;79;20873;-70
2022/09/21 21:20:30;;;;;;;22.35;19.98;;;;;;;-146.14;100.00;121243.23;1766837;80;21281;-69
2022/09/21 21:25:30;;;;;;;22.37;19.65;;;;;;;-144.83;100.00;76841.65;1810172;78;20963;-71
2022/09/21 21:30:34;;;;;;;21.73;14.33;;;;;;;-146.14;100.00;121243.23;1819344;79;20956;-71
2022/09/21 21:36:54;;;;;;;10.10;8.98;;;;;;;-146.14;100.00;121243.23;1819546;79;21423;-71
2022/09/21 21:43:04;;;;;;;10.55;9.43;;;;;;;-146.14;100.00;121243.23;1819299;79;20825;-70
2022/09/21 21:49:39;;;;;;;9.98;8.80;;;;;;;-146.13;100.00;76672.56;1819428;79;21430;-71
2022/09/21 21:54:04;;;;;;;10.18;8.18;;;;;;;-146.14;100.00;121243.11;1819574;79;20924;-71
2022/09/21 21:58:19;;;;;;;10.50;8.40;;;;;;;-146.14;100.00;121243.23;1819405;79;21364;-70
2022/09/21 22:02:20;;;;;;;8.58;7.78;;;;;;;-146.14;100.00;121243.23;1819534;79;21458;-70
2022/09/21 22:05:21;;;;;;;8.38;7.58;;;;;;;-146.13;0.00;121329.81;1819630;79;20976;-69
2022/09/21 22:08:04;;;;;;;10.05;7.75;;;;;;;-146.14;100.00;121243.23;1819557;79;21141;-71
2022/09/21 22:11:22;;;;;;;10.32;9.30;;;;;;;-146.14;100.00;121243.23;1819545;79;20872;-71
2022/09/21 22:18:27;;;;;;;10.10;9.18;;;;;;;-144.81;100.00;99131.02;1819863;78;20905;-70
2022/09/21 22:33:34;;;;;;;11.70;8.95;;;;;;;-55.81;100.00;127267.89;1819492;79;20995;-69
2022/09/21 22:36:14;;;;;;;11.12;9.88;;;;;;;-146.14;100.00;121243.23;1819487;79;20837;-71
